sensor_id;sensor_type;location;lat;lon;timestamp;pressure;altitude;pressure_sealevel;temperature;humidity
11808;BME280;5961;42.640;23.380;2023-05-28T00:00:44;93977.59;;;18.26;88.51
11808;BME280;5961;42.640;23.380;2023-05-28T00:03:11;93973.75;;;18.27;89.46
11808;BME280;5961;42.640;23.380;2023-05-28T00:05:38;93976.81;;;18.25;90.42
11808;BME280;5961;42.640;23.380;2023-05-28T00:08:04;93968.75;;;18.22;91.61
11808;BME280;5961;42.640;23.380;2023-05-28T00:10:32;93967.59;;;18.23;92.16
11808;BME280;5961;42.640;23.380;2023-05-28T00:12:59;93964.53;;;18.28;92.36
11808;BME280;5961;42.640;23.380;2023-05-28T00:15:26;93984.13;;;18.25;92.83
11808;BME280;5961;42.640;23.380;2023-05-28T00:17:53;93973.75;;;18.27;93.41
11808;BME280;5961;42.640;23.380;2023-05-28T00:20:20;93964.13;;;18.26;93.75
11808;BME280;5961;42.640;23.380;2023-05-28T00:22:46;93972.22;;;18.26;94.00
11808;BME280;5961;42.640;23.380;2023-05-28T00:25:14;93962.63;;;18.25;94.21
11808;BME280;5961;42.640;23.380;2023-05-28T00:27:42;93969.53;;;18.26;93.10
11808;BME280;5961;42.640;23.380;2023-05-28T00:30:09;93960.69;;;18.18;92.88
11808;BME280;5961;42.640;23.380;2023-05-28T00:32:36;93960.69;;;18.18;92.80
11808;BME280;5961;42.640;23.380;2023-05-28T00:35:03;93944.09;;;17.98;93.22
11808;BME280;5961;42.640;23.380;2023-05-28T00:37:30;93952.97;;;18.09;93.87
11808;BME280;5961;42.640;23.380;2023-05-28T00:39:57;93949.13;;;18.03;93.91
11808;BME280;5961;42.640;23.380;2023-05-28T00:42:23;93954.50;;;18.03;93.18
11808;BME280;5961;42.640;23.380;2023-05-28T00:44:53;93952.19;;;18.02;94.48
11808;BME280;5961;42.640;23.380;2023-05-28T00:47:19;93948.34;;;17.99;95.41
11808;BME280;5961;42.640;23.380;2023-05-28T00:49:46;93952.16;;;17.88;96.60
11808;BME280;5961;42.640;23.380;2023-05-28T00:52:14;93940.63;;;17.87;98.28
11808;BME280;5961;42.640;23.380;2023-05-28T00:54:41;93940.59;;;17.73;99.60
11808;BME280;5961;42.640;23.380;2023-05-28T00:57:07;93938.16;;;17.54;100.00
11808;BME280;5961;42.640;23.380;2023-05-28T00:59:35;93941.94;;;17.39;100.00
11808;BME280;5961;42.640;23.380;2023-05-28T01:02:04;93929.53;;;17.17;100.00
11808;BME280;5961;42.640;23.380;2023-05-28T01:04:30;93935.28;;;17.12;100.00
11808;BME280;5961;42.640;23.380;2023-05-28T01:06:57;93937.50;;;16.99;100.00
11808;BME280;5961;42.640;23.380;2023-05-28T01:09:25;93935.50;;;16.85;100.00
11808;BME280;5961;42.640;23.380;2023-05-28T01:11:52;93933.50;;;16.75;100.00
11808;BME280;5961;42.640;23.380;2023-05-28T01:14:20;93927.66;;;16.63;100.00
11808;BME280;5961;42.640;23.380;2023-05-28T01:16:48;93914.50;;;16.51;100.00
11808;BME280;5961;42.640;23.380;2023-05-28T01:19:18;93864.44;;;16.18;100.00
11808;BME280;5961;42.640;23.380;2023-05-28T01:21:56;93914.63;;;16.61;100.00
11808;BME280;5961;42.640;23.380;2023-05-28T01:24:24;93910.03;;;16.65;100.00
11808;BME280;5961;42.640;23.380;2023-05-28T01:26:51;93909.84;;;16.44;100.00
11808;BME280;5961;42.640;23.380;2023-05-28T01:29:19;93872.19;;;16.30;100.00
11808;BME280;5961;42.640;23.380;2023-05-28T01:31:45;93908.06;;;16.55;100.00
11808;BME280;5961;42.640;23.380;2023-05-28T01:34:12;93885.25;;;16.35;100.00
11808;BME280;5961;42.640;23.380;2023-05-28T01:36:43;93914.66;;;16.65;100.00
11808;BME280;5961;42.640;23.380;2023-05-28T01:39:15;93914.66;;;16.68;100.00
11808;BME280;5961;42.640;23.380;2023-05-28T01:41:46;93923.50;;;16.72;99.85
11808;BME280;5961;42.640;23.380;2023-05-28T01:44:15;93938.09;;;16.75;99.62
11808;BME280;5961;42.640;23.380;2023-05-28T01:46:44;93916.59;;;16.71;100.00
11808;BME280;5961;42.640;23.380;2023-05-28T01:49:12;93920.84;;;16.72;99.47
11808;BME280;5961;42.640;23.380;2023-05-28T01:51:39;93920.84;;;16.72;99.40
11808;BME280;5961;42.640;23.380;2023-05-28T01:54:05;93919.63;;;16.66;100.00
11808;BME280;5961;42.640;23.380;2023-05-28T01:56:32;93914.28;;;16.66;100.00
11808;BME280;5961;42.640;23.380;2023-05-28T01:59:00;93913.88;;;16.64;100.00
11808;BME280;5961;42.640;23.380;2023-05-28T02:01:28;93908.84;;;16.59;100.00
11808;BME280;5961;42.640;23.380;2023-05-28T02:03:55;93915.41;;;16.62;100.00
11808;BME280;5961;42.640;23.380;2023-05-28T02:06:23;93913.47;;;16.59;100.00
11808;BME280;5961;42.640;23.380;2023-05-28T02:08:50;93909.91;;;16.51;100.00
11808;BME280;5961;42.640;23.380;2023-05-28T02:11:17;93915.66;;;16.53;100.00
11808;BME280;5961;42.640;23.380;2023-05-28T02:13:44;93909.09;;;16.47;100.00
11808;BME280;5961;42.640;23.380;2023-05-28T02:16:13;93913.22;;;16.34;100.00
11808;BME280;5961;42.640;23.380;2023-05-28T02:18:43;93914.38;;;16.33;100.00
11808;BME280;5961;42.640;23.380;2023-05-28T02:21:10;93907.47;;;16.35;100.00
11808;BME280;5961;42.640;23.380;2023-05-28T02:23:37;93905.50;;;16.29;100.00
11808;BME280;5961;42.640;23.380;2023-05-28T02:26:04;93910.91;;;16.32;100.00
11808;BME280;5961;42.640;23.380;2023-05-28T02:28:31;93914.31;;;16.29;100.00
11808;BME280;5961;42.640;23.380;2023-05-28T02:30:58;93904.69;;;16.21;100.00
11808;BME280;5961;42.640;23.380;2023-05-28T02:33:26;93915.09;;;16.30;100.00
11808;BME280;5961;42.640;23.380;2023-05-28T02:35:53;93911.28;;;16.31;100.00
11808;BME280;5961;42.640;23.380;2023-05-28T02:38:20;93919.41;;;16.41;100.00
11808;BME280;5961;42.640;23.380;2023-05-28T02:40:46;93920.56;;;16.44;100.00
11808;BME280;5961;42.640;23.380;2023-05-28T02:43:13;93919.44;;;16.45;99.77
11808;BME280;5961;42.640;23.380;2023-05-28T02:45:40;93924.00;;;16.41;100.00
11808;BME280;5961;42.640;23.380;2023-05-28T02:48:06;93920.56;;;16.44;98.83
11808;BME280;5961;42.640;23.380;2023-05-28T02:50:34;93920.56;;;16.44;98.58
11808;BME280;5961;42.640;23.380;2023-05-28T02:53:02;93924.03;;;16.44;98.63
11808;BME280;5961;42.640;23.380;2023-05-28T02:55:28;93912.91;;;16.42;98.58
11808;BME280;5961;42.640;23.380;2023-05-28T02:57:55;93930.56;;;16.47;98.24
11808;BME280;5961;42.640;23.380;2023-05-28T03:00:22;93932.16;;;16.52;98.06
11808;BME280;5961;42.640;23.380;2023-05-28T03:02:48;93895.53;;;16.26;98.70
11808;BME280;5961;42.640;23.380;2023-05-28T03:05:15;93924.47;;;16.50;98.67
11808;BME280;5961;42.640;23.380;2023-05-28T03:07:43;93917.56;;;16.49;98.91
11808;BME280;5961;42.640;23.380;2023-05-28T03:10:10;93916.44;;;16.54;98.80
11808;BME280;5961;42.640;23.380;2023-05-28T03:12:37;93916.38;;;16.43;99.90
11808;BME280;5961;42.640;23.380;2023-05-28T03:15:04;93916.81;;;16.52;98.74
11808;BME280;5961;42.640;23.380;2023-05-28T03:17:30;93920.56;;;16.44;99.59
11808;BME280;5961;42.640;23.380;2023-05-28T03:19:57;93922.19;;;16.52;99.00
11808;BME280;5961;42.640;23.380;2023-05-28T03:22:24;93920.66;;;16.51;99.79
11808;BME280;5961;42.640;23.380;2023-05-28T03:24:52;93910.59;;;16.41;99.97
11808;BME280;5961;42.640;23.380;2023-05-28T03:27:18;93921.03;;;16.53;100.00
11808;BME280;5961;42.640;23.380;2023-05-28T03:29:45;93928.41;;;16.60;100.00
11808;BME280;5961;42.640;23.380;2023-05-28T03:32:12;93928.69;;;16.51;99.92
11808;BME280;5961;42.640;23.380;2023-05-28T03:34:38;93924.47;;;16.50;99.73
11808;BME280;5961;42.640;23.380;2023-05-28T03:37:05;93933.00;;;16.56;99.64
11808;BME280;5961;42.640;23.380;2023-05-28T03:39:32;93920.66;;;16.51;99.28
11808;BME280;5961;42.640;23.380;2023-05-28T03:42:00;93927.13;;;16.50;99.37
11808;BME280;5961;42.640;23.380;2023-05-28T03:44:26;93931.72;;;16.46;99.29
11808;BME280;5961;42.640;23.380;2023-05-28T03:46:53;93929.03;;;16.46;99.37
11808;BME280;5961;42.640;23.380;2023-05-28T03:49:20;93931.38;;;16.51;98.74
11808;BME280;5961;42.640;23.380;2023-05-28T03:51:46;93935.66;;;16.56;98.35
11808;BME280;5961;42.640;23.380;2023-05-28T03:54:13;93934.50;;;16.57;97.81
11808;BME280;5961;42.640;23.380;2023-05-28T03:56:40;93939.09;;;16.56;98.56
11808;BME280;5961;42.640;23.380;2023-05-28T03:59:08;93936.88;;;16.62;98.15
11808;BME280;5961;42.640;23.380;2023-05-28T04:01:35;93897.59;;;16.43;97.95
11808;BME280;5961;42.640;23.380;2023-05-28T04:04:02;93929.63;;;16.69;98.23
11808;BME280;5961;42.640;23.380;2023-05-28T04:06:29;93931.53;;;16.69;98.19
11808;BME280;5961;42.640;23.380;2023-05-28T04:08:56;93930.81;;;16.75;98.03
11808;BME280;5961;42.640;23.380;2023-05-28T04:11:22;93936.25;;;16.82;97.56
11808;BME280;5961;42.640;23.380;2023-05-28T04:13:50;93943.13;;;16.83;97.76
11808;BME280;5961;42.640;23.380;2023-05-28T04:16:20;93948.56;;;16.90;97.02
11808;BME280;5961;42.640;23.380;2023-05-28T04:18:48;93946.69;;;16.94;96.76
11808;BME280;5961;42.640;23.380;2023-05-28T04:21:15;93940.91;;;16.92;96.66
11808;BME280;5961;42.640;23.380;2023-05-28T04:23:41;93948.19;;;16.95;96.41
11808;BME280;5961;42.640;23.380;2023-05-28T04:26:08;93940.19;;;16.99;96.48
11808;BME280;5961;42.640;23.380;2023-05-28T04:28:35;93938.28;;;16.99;96.18
11808;BME280;5961;42.640;23.380;2023-05-28T04:31:02;93945.97;;;17.05;96.53
11808;BME280;5961;42.640;23.380;2023-05-28T04:33:30;93946.72;;;17.05;96.38
11808;BME280;5961;42.640;23.380;2023-05-28T04:35:57;93936.41;;;17.07;96.61
11808;BME280;5961;42.640;23.380;2023-05-28T04:38:24;93947.94;;;17.15;96.61
11808;BME280;5961;42.640;23.380;2023-05-28T04:40:50;93950.28;;;17.20;96.62
11808;BME280;5961;42.640;23.380;2023-05-28T04:43:18;93945.66;;;17.17;96.76
11808;BME280;5961;42.640;23.380;2023-05-28T04:45:46;93944.91;;;17.20;96.95
11808;BME280;5961;42.640;23.380;2023-05-28T04:48:13;93946.44;;;17.21;97.26
11808;BME280;5961;42.640;23.380;2023-05-28T04:50:41;93948.78;;;17.26;97.29
11808;BME280;5961;42.640;23.380;2023-05-28T04:53:08;93956.44;;;17.24;97.52
11808;BME280;5961;42.640;23.380;2023-05-28T04:55:35;93958.00;;;17.32;97.41
11808;BME280;5961;42.640;23.380;2023-05-28T04:58:02;93956.50;;;17.34;97.06
11808;BME280;5961;42.640;23.380;2023-05-28T05:00:28;93952.69;;;17.39;96.97
11808;BME280;5961;42.640;23.380;2023-05-28T05:02:56;93952.69;;;17.39;97.32
11808;BME280;5961;42.640;23.380;2023-05-28T05:05:23;93941.91;;;17.35;96.95
11808;BME280;5961;42.640;23.380;2023-05-28T05:07:51;93931.56;;;17.34;96.34
11808;BME280;5961;42.640;23.380;2023-05-28T05:10:18;93951.19;;;17.45;96.00
11808;BME280;5961;42.640;23.380;2023-05-28T05:12:47;93946.56;;;17.42;96.74
11808;BME280;5961;42.640;23.380;2023-05-28T05:15:14;93914.22;;;17.21;96.45
11808;BME280;5961;42.640;23.380;2023-05-28T05:17:41;93952.72;;;17.46;96.97
11808;BME280;5961;42.640;23.380;2023-05-28T05:20:08;93943.84;;;17.38;96.71
11808;BME280;5961;42.640;23.380;2023-05-28T05:22:35;93945.00;;;17.41;96.96
11808;BME280;5961;42.640;23.380;2023-05-28T05:25:04;93950.44;;;17.48;96.02
11808;BME280;5961;42.640;23.380;2023-05-28T05:27:34;93947.34;;;17.46;96.50
11808;BME280;5961;42.640;23.380;2023-05-28T05:30:01;93942.75;;;17.50;96.72
11808;BME280;5961;42.640;23.380;2023-05-28T05:32:27;93944.69;;;17.49;96.16
11808;BME280;5961;42.640;23.380;2023-05-28T05:34:54;93940.47;;;17.52;95.77
11808;BME280;5961;42.640;23.380;2023-05-28T05:37:21;93942.00;;;17.49;96.50
11808;BME280;5961;42.640;23.380;2023-05-28T05:39:48;93937.00;;;17.51;96.07
11808;BME280;5961;42.640;23.380;2023-05-28T05:42:16;93942.44;;;17.55;95.99
11808;BME280;5961;42.640;23.380;2023-05-28T05:44:42;93938.13;;;17.47;96.61
11808;BME280;5961;42.640;23.380;2023-05-28T05:47:09;93943.16;;;17.52;96.79
11808;BME280;5961;42.640;23.380;2023-05-28T05:49:36;93948.19;;;17.57;96.90
11808;BME280;5961;42.640;23.380;2023-05-28T05:52:03;93945.13;;;17.55;97.38
11808;BME280;5961;42.640;23.380;2023-05-28T05:54:29;93942.78;;;17.53;97.70
11808;BME280;5961;42.640;23.380;2023-05-28T05:56:56;93947.81;;;17.55;97.61
11808;BME280;5961;42.640;23.380;2023-05-28T05:59:25;93944.25;;;17.44;96.72
11808;BME280;5961;42.640;23.380;2023-05-28T06:01:52;93945.44;;;17.50;96.85
11808;BME280;5961;42.640;23.380;2023-05-28T06:04:19;93942.00;;;17.53;97.07
11808;BME280;5961;42.640;23.380;2023-05-28T06:06:45;93947.03;;;17.54;97.01
11808;BME280;5961;42.640;23.380;2023-05-28T06:09:12;93953.56;;;17.57;95.62
11808;BME280;5961;42.640;23.380;2023-05-28T06:11:39;93945.13;;;17.55;96.49
11808;BME280;5961;42.640;23.380;2023-05-28T06:14:06;93945.53;;;17.61;97.22
11808;BME280;5961;42.640;23.380;2023-05-28T06:16:34;93949.75;;;17.65;97.45
11808;BME280;5961;42.640;23.380;2023-05-28T06:19:01;93953.22;;;17.69;96.95
11808;BME280;5961;42.640;23.380;2023-05-28T06:21:27;93960.91;;;17.74;95.25
11808;BME280;5961;42.640;23.380;2023-05-28T06:23:54;93961.72;;;17.78;94.60
11808;BME280;5961;42.640;23.380;2023-05-28T06:26:21;93967.88;;;17.82;94.40
11808;BME280;5961;42.640;23.380;2023-05-28T06:28:47;93963.66;;;17.85;95.06
11808;BME280;5961;42.640;23.380;2023-05-28T06:31:14;93973.66;;;17.88;94.77
11808;BME280;5961;42.640;23.380;2023-05-28T06:33:42;93952.88;;;17.81;94.86
11808;BME280;5961;42.640;23.380;2023-05-28T06:36:09;93949.81;;;17.79;95.58
11808;BME280;5961;42.640;23.380;2023-05-28T06:38:36;93971.38;;;17.93;95.58
11808;BME280;5961;42.640;23.380;2023-05-28T06:41:03;93973.28;;;17.96;95.01
11808;BME280;5961;42.640;23.380;2023-05-28T06:43:29;93969.06;;;17.99;95.02
11808;BME280;5961;42.640;23.380;2023-05-28T06:45:56;93971.75;;;17.99;94.70
11808;BME280;5961;42.640;23.380;2023-05-28T06:48:23;93971.41;;;18.00;94.58
11808;BME280;5961;42.640;23.380;2023-05-28T06:50:51;93971.00;;;17.98;94.76
11808;BME280;5961;42.640;23.380;2023-05-28T06:53:18;93972.19;;;18.01;95.04
11808;BME280;5961;42.640;23.380;2023-05-28T06:55:44;93962.53;;;17.93;96.04
11808;BME280;5961;42.640;23.380;2023-05-28T06:58:11;93975.97;;;17.96;97.23
11808;BME280;5961;42.640;23.380;2023-05-28T07:00:38;93979.81;;;17.92;96.77
11808;BME280;5961;42.640;23.380;2023-05-28T07:03:04;93972.13;;;17.90;97.43
11808;BME280;5961;42.640;23.380;2023-05-28T07:05:31;93974.81;;;17.90;97.81
11808;BME280;5961;42.640;23.380;2023-05-28T07:08:02;93964.41;;;17.78;97.67
11808;BME280;5961;42.640;23.380;2023-05-28T07:10:28;93960.59;;;17.83;97.82
11808;BME280;5961;42.640;23.380;2023-05-28T07:12:55;93967.88;;;17.89;97.64
11808;BME280;5961;42.640;23.380;2023-05-28T07:15:22;93964.84;;;17.94;97.85
11808;BME280;5961;42.640;23.380;2023-05-28T07:17:48;93964.84;;;17.94;97.41
11808;BME280;5961;42.640;23.380;2023-05-28T07:20:15;93962.16;;;18.01;97.26
11808;BME280;5961;42.640;23.380;2023-05-28T07:22:42;93967.19;;;18.14;97.81
11808;BME280;5961;42.640;23.380;2023-05-28T07:25:10;93971.44;;;18.22;97.95
11808;BME280;5961;42.640;23.380;2023-05-28T07:27:37;93959.91;;;18.32;97.90
11808;BME280;5961;42.640;23.380;2023-05-28T07:30:04;93965.69;;;18.37;96.71
11808;BME280;5961;42.640;23.380;2023-05-28T07:32:31;93966.50;;;18.45;96.41
11808;BME280;5961;42.640;23.380;2023-05-28T07:34:58;93965.34;;;18.46;94.29
11808;BME280;5961;42.640;23.380;2023-05-28T07:37:24;93965.72;;;18.48;94.90
11808;BME280;5961;42.640;23.380;2023-05-28T07:39:51;93953.03;;;18.45;95.05
11808;BME280;5961;42.640;23.380;2023-05-28T07:42:19;93948.78;;;18.44;94.57
11808;BME280;5961;42.640;23.380;2023-05-28T07:44:46;93956.50;;;18.52;93.92
11808;BME280;5961;42.640;23.380;2023-05-28T07:47:13;93963.06;;;18.55;93.72
11808;BME280;5961;42.640;23.380;2023-05-28T07:49:41;93956.16;;;18.54;93.61
11808;BME280;5961;42.640;23.380;2023-05-28T07:52:07;93955.38;;;18.53;95.04
11808;BME280;5961;42.640;23.380;2023-05-28T07:54:34;93953.81;;;18.52;94.65
11808;BME280;5961;42.640;23.380;2023-05-28T07:57:01;93951.53;;;18.54;93.48
11808;BME280;5961;42.640;23.380;2023-05-28T07:59:29;93949.22;;;18.53;93.96
11808;BME280;5961;42.640;23.380;2023-05-28T08:01:57;93951.53;;;18.54;94.44
11808;BME280;5961;42.640;23.380;2023-05-28T08:04:23;93952.31;;;18.55;94.24
11808;BME280;5961;42.640;23.380;2023-05-28T08:06:50;93946.50;;;18.49;94.33
11808;BME280;5961;42.640;23.380;2023-05-28T08:09:17;93954.19;;;18.47;92.87
11808;BME280;5961;42.640;23.380;2023-05-28T08:11:44;93956.50;;;18.42;94.01
11808;BME280;5961;42.640;23.380;2023-05-28T08:14:10;93949.97;;;18.43;95.68
11808;BME280;5961;42.640;23.380;2023-05-28T08:16:38;93952.25;;;18.37;95.57
11808;BME280;5961;42.640;23.380;2023-05-28T08:19:05;93953.41;;;18.36;95.19
11808;BME280;5961;42.640;23.380;2023-05-28T08:21:32;93954.94;;;18.37;95.26
11808;BME280;5961;42.640;23.380;2023-05-28T08:23:59;93946.50;;;18.39;95.22
11808;BME280;5961;42.640;23.380;2023-05-28T08:26:26;93946.09;;;18.47;96.94
11808;BME280;5961;42.640;23.380;2023-05-28T08:28:53;93952.69;;;18.53;93.90
11808;BME280;5961;42.640;23.380;2023-05-28T08:31:19;93953.06;;;18.55;92.50
11808;BME280;5961;42.640;23.380;2023-05-28T08:33:48;93952.28;;;18.62;92.14
11808;BME280;5961;42.640;23.380;2023-05-28T08:36:14;93952.28;;;18.62;93.77
11808;BME280;5961;42.640;23.380;2023-05-28T08:38:41;93953.06;;;18.66;93.63
11808;BME280;5961;42.640;23.380;2023-05-28T08:41:08;93953.09;;;18.73;90.43
11808;BME280;5961;42.640;23.380;2023-05-28T08:43:35;93953.09;;;18.73;90.10
11808;BME280;5961;42.640;23.380;2023-05-28T08:46:03;93952.31;;;18.73;91.64
11808;BME280;5961;42.640;23.380;2023-05-28T08:48:32;93954.22;;;18.76;92.28
11808;BME280;5961;42.640;23.380;2023-05-28T08:51:01;93912.28;;;18.46;93.62
11808;BME280;5961;42.640;23.380;2023-05-28T08:53:31;93953.47;;;18.82;93.11
11808;BME280;5961;42.640;23.380;2023-05-28T08:55:58;93960.38;;;18.87;91.65
11808;BME280;5961;42.640;23.380;2023-05-28T08:58:25;93964.59;;;18.95;91.56
11808;BME280;5961;42.640;23.380;2023-05-28T09:00:52;93958.06;;;19.03;91.00
11808;BME280;5961;42.640;23.380;2023-05-28T09:03:18;93946.88;;;19.11;89.36
11808;BME280;5961;42.640;23.380;2023-05-28T09:05:45;93955.72;;;19.23;89.14
11808;BME280;5961;42.640;23.380;2023-05-28T09:08:14;93958.03;;;19.28;87.91
11808;BME280;5961;42.640;23.380;2023-05-28T09:10:40;93952.59;;;19.35;86.65
11808;BME280;5961;42.640;23.380;2023-05-28T09:13:07;93906.06;;;19.13;86.29
11808;BME280;5961;42.640;23.380;2023-05-28T09:15:34;93927.19;;;19.36;87.12
11808;BME280;5961;42.640;23.380;2023-05-28T09:18:01;93942.19;;;19.54;86.57
11808;BME280;5961;42.640;23.380;2023-05-28T09:20:28;93938.34;;;19.52;86.24
11808;BME280;5961;42.640;23.380;2023-05-28T09:22:59;93945.28;;;19.49;86.05
11808;BME280;5961;42.640;23.380;2023-05-28T09:25:27;93943.75;;;19.45;85.50
11808;BME280;5961;42.640;23.380;2023-05-28T09:27:58;93952.25;;;19.40;86.39
11808;BME280;5961;42.640;23.380;2023-05-28T09:30:25;93946.84;;;19.36;87.51
11808;BME280;5961;42.640;23.380;2023-05-28T09:33:00;93945.69;;;19.27;88.51
11808;BME280;5961;42.640;23.380;2023-05-28T09:35:28;93941.09;;;19.24;88.74
11808;BME280;5961;42.640;23.380;2023-05-28T09:38:05;93954.56;;;19.16;88.56
11808;BME280;5961;42.640;23.380;2023-05-28T09:40:38;93948.81;;;19.07;88.03
11808;BME280;5961;42.640;23.380;2023-05-28T09:43:05;93935.00;;;18.91;87.52
11808;BME280;5961;42.640;23.380;2023-05-28T09:45:33;93910.78;;;18.70;88.18
11808;BME280;5961;42.640;23.380;2023-05-28T09:48:00;93946.91;;;18.87;89.03
11808;BME280;5961;42.640;23.380;2023-05-28T09:50:27;93949.63;;;18.73;90.70
11808;BME280;5961;42.640;23.380;2023-05-28T09:52:55;93940.75;;;18.65;91.49
11808;BME280;5961;42.640;23.380;2023-05-28T09:55:23;93942.69;;;18.57;92.94
11808;BME280;5961;42.640;23.380;2023-05-28T09:57:59;93940.00;;;18.50;92.46
11808;BME280;5961;42.640;23.380;2023-05-28T10:00:31;93949.19;;;18.42;93.18
11808;BME280;5961;42.640;23.380;2023-05-28T10:03:17;93956.09;;;18.36;92.77
11808;BME280;5961;42.640;23.380;2023-05-28T10:05:51;93951.09;;;18.35;92.91
11808;BME280;5961;42.640;23.380;2023-05-28T10:08:19;93959.56;;;18.37;93.30
11808;BME280;5961;42.640;23.380;2023-05-28T10:10:52;93956.09;;;18.36;93.27
11808;BME280;5961;42.640;23.380;2023-05-28T10:13:21;93949.94;;;18.36;93.37
11808;BME280;5961;42.640;23.380;2023-05-28T10:15:48;93955.69;;;18.34;92.96
11808;BME280;5961;42.640;23.380;2023-05-28T10:18:16;93955.34;;;18.39;93.30
11808;BME280;5961;42.640;23.380;2023-05-28T10:20:43;93959.56;;;18.44;93.54
11808;BME280;5961;42.640;23.380;2023-05-28T10:23:10;93949.94;;;18.46;93.79
11808;BME280;5961;42.640;23.380;2023-05-28T10:25:37;93948.06;;;18.50;93.77
11808;BME280;5961;42.640;23.380;2023-05-28T10:28:04;93950.38;;;18.59;93.14
11808;BME280;5961;42.640;23.380;2023-05-28T10:30:34;93954.22;;;18.65;92.88
11808;BME280;5961;42.640;23.380;2023-05-28T10:33:05;93949.63;;;18.73;93.91
11808;BME280;5961;42.640;23.380;2023-05-28T10:35:33;93945.38;;;18.72;91.72
11808;BME280;5961;42.640;23.380;2023-05-28T10:38:07;93941.91;;;18.71;92.27
11808;BME280;5961;42.640;23.380;2023-05-28T10:40:39;93957.69;;;18.69;92.34
11808;BME280;5961;42.640;23.380;2023-05-28T10:43:41;93954.59;;;18.71;92.44
11808;BME280;5961;42.640;23.380;2023-05-28T10:46:12;93944.59;;;18.71;91.88
11808;BME280;5961;42.640;23.380;2023-05-28T10:48:39;93955.38;;;18.71;92.47
11808;BME280;5961;42.640;23.380;2023-05-28T10:51:07;93937.31;;;18.75;92.54
11808;BME280;5961;42.640;23.380;2023-05-28T10:53:33;93931.91;;;18.75;91.89
11808;BME280;5961;42.640;23.380;2023-05-28T10:56:01;93933.84;;;18.78;91.63
11808;BME280;5961;42.640;23.380;2023-05-28T10:58:32;93913.88;;;18.58;90.88
11808;BME280;5961;42.640;23.380;2023-05-28T11:01:00;93935.38;;;18.83;90.50
11808;BME280;5961;42.640;23.380;2023-05-28T11:03:41;93930.75;;;18.90;91.05
11808;BME280;5961;42.640;23.380;2023-05-28T11:06:09;93923.03;;;18.92;90.30
11808;BME280;5961;42.640;23.380;2023-05-28T11:08:45;93919.97;;;18.87;89.68
11808;BME280;5961;42.640;23.380;2023-05-28T11:11:13;93928.84;;;18.94;90.64
11808;BME280;5961;42.640;23.380;2023-05-28T11:13:42;93941.53;;;18.97;89.86
11808;BME280;5961;42.640;23.380;2023-05-28T11:16:09;93926.50;;;19.00;89.26
11808;BME280;5961;42.640;23.380;2023-05-28T11:18:36;93932.28;;;19.02;90.58
11808;BME280;5961;42.640;23.380;2023-05-28T11:21:05;93933.03;;;19.06;90.54
11808;BME280;5961;42.640;23.380;2023-05-28T11:23:33;93934.56;;;19.10;89.71
11808;BME280;5961;42.640;23.380;2023-05-28T11:26:01;93927.63;;;19.16;90.02
11808;BME280;5961;42.640;23.380;2023-05-28T11:28:28;93919.94;;;19.18;88.65
11808;BME280;5961;42.640;23.380;2023-05-28T11:30:56;93920.72;;;19.15;89.21
11808;BME280;5961;42.640;23.380;2023-05-28T11:33:26;93925.28;;;19.29;88.12
11808;BME280;5961;42.640;23.380;2023-05-28T11:35:59;93921.81;;;19.29;87.10
11808;BME280;5961;42.640;23.380;2023-05-28T11:38:27;93914.50;;;19.26;86.18
11808;BME280;5961;42.640;23.380;2023-05-28T11:40:58;93923.75;;;19.28;86.58
11808;BME280;5961;42.640;23.380;2023-05-28T11:43:26;93914.50;;;19.33;87.72
11808;BME280;5961;42.640;23.380;2023-05-28T11:45:56;93916.81;;;19.41;87.66
11808;BME280;5961;42.640;23.380;2023-05-28T11:48:23;93911.41;;;19.48;88.76
11808;BME280;5961;42.640;23.380;2023-05-28T11:50:56;93912.91;;;19.53;87.42
11808;BME280;5961;42.640;23.380;2023-05-28T11:53:23;93916.00;;;19.55;86.29
11808;BME280;5961;42.640;23.380;2023-05-28T11:55:51;93926.75;;;19.62;86.22
11808;BME280;5961;42.640;23.380;2023-05-28T11:58:18;93928.28;;;19.66;85.34
11808;BME280;5961;42.640;23.380;2023-05-28T12:00:56;93919.78;;;19.68;84.28
11808;BME280;5961;42.640;23.380;2023-05-28T12:03:25;93924.41;;;19.67;84.92
11808;BME280;5961;42.640;23.380;2023-05-28T12:05:52;93919.06;;;19.64;86.00
11808;BME280;5961;42.640;23.380;2023-05-28T12:08:19;93907.50;;;19.63;85.28
11808;BME280;5961;42.640;23.380;2023-05-28T12:10:46;93919.44;;;19.62;86.00
11808;BME280;5961;42.640;23.380;2023-05-28T12:13:14;93899.84;;;19.51;86.01
11808;BME280;5961;42.640;23.380;2023-05-28T12:15:41;93902.19;;;19.46;86.46
11808;BME280;5961;42.640;23.380;2023-05-28T12:18:07;93916.75;;;19.55;86.94
11808;BME280;5961;42.640;23.380;2023-05-28T12:20:37;93913.69;;;19.50;85.69
11808;BME280;5961;42.640;23.380;2023-05-28T12:23:04;93910.25;;;19.46;85.68
11808;BME280;5961;42.640;23.380;2023-05-28T12:25:45;93901.38;;;19.38;86.75
11808;BME280;5961;42.640;23.380;2023-05-28T12:28:15;93906.78;;;19.35;86.58
11808;BME280;5961;42.640;23.380;2023-05-28T12:30:43;93914.53;;;19.40;86.97
11808;BME280;5961;42.640;23.380;2023-05-28T12:33:10;93914.53;;;19.40;87.58
11808;BME280;5961;42.640;23.380;2023-05-28T12:35:37;93902.94;;;19.36;88.02
11808;BME280;5961;42.640;23.380;2023-05-28T12:38:04;93912.16;;;19.38;87.91
11808;BME280;5961;42.640;23.380;2023-05-28T12:40:30;93908.34;;;19.36;87.48
11808;BME280;5961;42.640;23.380;2023-05-28T12:42:57;93913.72;;;19.36;87.13
11808;BME280;5961;42.640;23.380;2023-05-28T12:45:25;93902.94;;;19.36;87.26
11808;BME280;5961;42.640;23.380;2023-05-28T12:47:52;93908.34;;;19.39;87.50
11808;BME280;5961;42.640;23.380;2023-05-28T12:50:19;93906.41;;;19.36;87.30
11808;BME280;5961;42.640;23.380;2023-05-28T12:52:48;93909.13;;;19.40;86.74
11808;BME280;5961;42.640;23.380;2023-05-28T12:55:15;93914.88;;;19.38;86.17
11808;BME280;5961;42.640;23.380;2023-05-28T12:57:41;93913.75;;;19.39;86.30
11808;BME280;5961;42.640;23.380;2023-05-28T13:00:09;93900.63;;;19.38;86.82
11808;BME280;5961;42.640;23.380;2023-05-28T13:02:37;93899.09;;;19.40;88.73